createdAt,value
2019-03-25T00:00:58.141Z,26.35
2019-03-25T00:03:47.038Z,27.30
2019-03-25T00:06:24.434Z,25.97
2019-03-25T00:09:13.419Z,27.93
2019-03-25T00:11:50.159Z,28.47
2019-03-25T00:14:39.339Z,27.77
2019-03-25T00:17:14.933Z,26.35
2019-03-25T00:22:40.354Z,25.82
2019-03-25T00:25:23.447Z,27.07
2019-03-25T00:28:06.076Z,27.82
2019-03-25T00:30:49.529Z,26.73
2019-03-25T00:33:31.792Z,28.27
2019-03-25T00:36:08.400Z,27.48
2019-03-25T00:38:58.178Z,27.67
2019-03-25T00:41:34.109Z,26.12
2019-03-25T00:44:24.251Z,27.30
2019-03-25T00:47:00.010Z,25.77
2019-03-25T00:49:49.322Z,27.22
2019-03-25T00:52:31.934Z,26.23
2019-03-25T00:55:28.317Z,28.20
2019-03-25T00:58:17.847Z,26.75
2019-03-25T01:00:54.271Z,26.87
2019-03-25T01:03:43.345Z,27.25
2019-03-25T01:06:19.145Z,27.32
2019-03-25T01:09:08.648Z,26.87
2019-03-25T01:11:49.318Z,27.13
2019-03-25T01:14:37.172Z,28.10
2019-03-25T01:17:20.445Z,28.75
2019-03-25T01:20:15.766Z,28.50
2019-03-25T01:23:05.685Z,28.25
2019-03-25T01:25:41.458Z,28.27
2019-03-25T01:28:30.622Z,27.55
2019-03-25T01:31:06.513Z,28.57
2019-03-25T01:33:55.492Z,27.42
2019-03-25T01:36:31.185Z,27.52
2019-03-25T01:39:20.241Z,27.07
2019-03-25T01:42:03.682Z,26.07
2019-03-25T01:44:46.089Z,25.70
2019-03-25T01:47:36.463Z,25.40
2019-03-25T01:50:19.193Z,26.60
2019-03-25T01:53:15.086Z,26.52
2019-03-25T01:56:10.684Z,26.23
2019-03-25T01:59:07.607Z,24.87
2019-03-25T02:01:57.257Z,26.37
2019-03-25T02:04:32.807Z,26.62
2019-03-25T02:07:22.382Z,26.93
2019-03-25T02:09:58.136Z,25.60
2019-03-25T02:12:47.803Z,25.77
2019-03-25T02:15:30.495Z,26.42
2019-03-25T02:18:26.609Z,25.45
2019-03-25T02:21:22.666Z,25.25
2019-03-25T02:24:18.094Z,25.55
2019-03-25T02:27:01.446Z,26.20
2019-03-25T02:29:50.904Z,25.50
2019-03-25T02:32:27.366Z,25.45
2019-03-25T02:35:17.255Z,24.67
2019-03-25T02:37:53.654Z,25.57
2019-03-25T02:40:42.890Z,25.35
2019-03-25T02:43:18.970Z,26.33
2019-03-25T02:46:08.391Z,25.17
2019-03-25T02:48:44.722Z,25.90
2019-03-25T02:51:40.387Z,24.23
2019-03-25T02:54:36.357Z,25.12
2019-03-25T02:57:25.055Z,25.05
2019-03-25T03:00:08.776Z,25.30
2019-03-25T03:02:51.200Z,25.43
2019-03-25T03:05:34.134Z,25.82
2019-03-25T03:08:16.698Z,26.33
2019-03-25T03:11:06.937Z,24.70
2019-03-25T03:13:42.826Z,26.15
2019-03-25T03:16:32.120Z,25.45
2019-03-25T03:19:16.355Z,25.08
2019-03-25T03:22:00.103Z,26.20
2019-03-25T03:24:42.343Z,25.88
2019-03-25T03:27:24.598Z,25.15
2019-03-25T03:30:06.624Z,26.25
2019-03-25T03:32:56.722Z,24.12
2019-03-25T03:35:32.626Z,27.87
2019-03-25T03:38:22.264Z,26.75
2019-03-25T03:41:05.071Z,26.70
2019-03-25T03:43:48.308Z,23.87
2019-03-25T03:46:37.454Z,24.40
2019-03-25T03:49:20.547Z,24.40
2019-03-25T03:52:10.655Z,23.55
2019-03-25T03:54:46.997Z,23.67
2019-03-25T03:57:36.622Z,23.02
2019-03-25T04:00:13.350Z,23.47
2019-03-25T04:03:02.823Z,24.05
2019-03-25T04:05:39.396Z,24.67
2019-03-25T04:08:28.246Z,23.92
2019-03-25T04:13:54.873Z,23.87
2019-03-25T04:16:38.215Z,24.57
2019-03-25T04:19:28.104Z,24.23
2019-03-25T04:22:04.579Z,24.00
2019-03-25T04:24:53.809Z,24.23
2019-03-25T04:27:30.073Z,24.77
2019-03-25T04:30:20.028Z,25.12
2019-03-25T04:32:56.265Z,25.02
2019-03-25T04:35:45.509Z,24.77
2019-03-25T04:38:28.579Z,25.55
2019-03-25T04:41:25.074Z,24.35
2019-03-25T04:44:20.518Z,23.20
2019-03-25T04:47:17.292Z,24.35
2019-03-25T04:50:13.372Z,24.57
2019-03-25T04:53:08.651Z,25.75
2019-03-25T04:56:04.241Z,23.70
2019-03-25T04:59:00.536Z,23.22
2019-03-25T05:01:56.979Z,24.37
2019-03-25T05:04:45.942Z,24.80
2019-03-25T05:07:28.610Z,24.02
2019-03-25T05:10:18.359Z,22.75
2019-03-25T05:12:54.656Z,26.30
2019-03-25T05:15:43.647Z,23.95
2019-03-25T05:18:19.499Z,24.10
2019-03-25T05:21:08.552Z,24.32
2019-03-25T05:23:51.251Z,23.83
2019-03-25T05:26:51.271Z,24.45
2019-03-25T05:29:31.031Z,24.50
2019-03-25T05:32:20.247Z,23.22
2019-03-25T05:34:56.519Z,25.37
2019-03-25T05:37:46.146Z,24.92
2019-03-25T05:40:28.733Z,25.50
2019-03-25T05:43:12.306Z,26.45
2019-03-25T05:45:54.344Z,24.07
2019-03-25T05:48:36.833Z,25.40
2019-03-25T05:51:19.267Z,26.95
2019-03-25T05:54:01.145Z,25.17
2019-03-25T05:56:43.428Z,24.05
2019-03-25T05:59:26.647Z,24.57
2019-03-25T06:02:08.986Z,25.92
2019-03-25T06:04:51.510Z,24.92
2019-03-25T06:07:34.007Z,24.12
2019-03-25T06:10:16.400Z,24.37
2019-03-25T06:12:59.082Z,25.77
2019-03-25T06:15:49.549Z,25.10
2019-03-25T06:18:32.264Z,25.92
2019-03-25T06:21:21.880Z,26.55
2019-03-25T06:24:03.854Z,26.50
2019-03-25T06:26:47.369Z,25.57
2019-03-25T06:29:31.993Z,26.15
2019-03-25T06:32:13.501Z,26.42
2019-03-25T06:34:55.525Z,25.30
2019-03-25T06:37:45.804Z,28.75
2019-03-25T06:40:27.962Z,27.75
2019-03-25T06:43:10.881Z,27.52
2019-03-25T06:46:00.878Z,26.30
2019-03-25T06:48:43.321Z,28.27
2019-03-25T06:51:33.158Z,26.73
2019-03-25T06:54:09.311Z,27.65
2019-03-25T06:57:05.541Z,27.67
2019-03-25T06:59:56.088Z,26.60
2019-03-25T07:02:38.493Z,27.40
2019-03-25T07:05:34.438Z,29.00
2019-03-25T07:08:30.771Z,27.95
2019-03-25T07:11:26.693Z,28.30
2019-03-25T07:14:22.654Z,30.70
2019-03-25T07:17:17.749Z,28.62
2019-03-25T07:20:07.303Z,28.15
2019-03-25T07:22:51.036Z,29.32
2019-03-25T07:25:33.735Z,28.32
2019-03-25T07:28:16.396Z,29.37
2019-03-25T07:30:59.445Z,29.40
2019-03-25T07:33:42.555Z,28.12
2019-03-25T07:36:25.620Z,30.30
2019-03-25T07:39:08.304Z,30.85
2019-03-25T07:41:51.645Z,30.05
2019-03-25T07:44:34.406Z,29.75
2019-03-25T07:47:17.853Z,31.23
2019-03-25T07:50:00.600Z,32.50
2019-03-25T07:52:49.976Z,32.28
2019-03-25T07:55:33.303Z,31.73
2019-03-25T07:58:28.567Z,31.37
2019-03-25T08:01:18.325Z,32.15
2019-03-25T08:03:54.191Z,32.40
2019-03-25T08:06:44.129Z,32.10
2019-03-25T08:09:20.786Z,32.65
2019-03-25T08:12:10.008Z,34.18
2019-03-25T08:14:45.891Z,32.80
2019-03-25T08:17:35.235Z,31.87
2019-03-25T08:20:12.906Z,31.25
2019-03-25T08:23:02.501Z,31.82
2019-03-25T08:25:46.230Z,32.58
2019-03-25T08:28:41.557Z,32.88
2019-03-25T08:31:37.874Z,32.70
2019-03-25T08:34:33.479Z,33.08
2019-03-25T08:37:22.972Z,33.02
2019-03-25T08:40:06.264Z,31.93
2019-03-25T08:42:56.422Z,32.13
2019-03-25T08:45:33.055Z,29.85
2019-03-25T08:48:21.812Z,32.23
2019-03-25T08:50:58.176Z,30.65
2019-03-25T08:53:48.440Z,31.48
2019-03-25T08:56:24.877Z,30.40
2019-03-25T08:59:13.904Z,29.32
2019-03-25T09:01:56.584Z,30.45
2019-03-25T09:04:46.082Z,32.13
2019-03-25T09:07:22.595Z,31.97
2019-03-25T09:10:13.271Z,32.20
2019-03-25T09:12:49.836Z,33.02
2019-03-25T09:15:40.061Z,32.33
2019-03-25T09:18:16.069Z,31.40
2019-03-25T09:21:06.259Z,30.25
2019-03-25T09:23:42.170Z,29.95
2019-03-25T09:26:33.790Z,31.35
2019-03-25T09:29:09.974Z,29.48
2019-03-25T09:31:59.210Z,31.25
2019-03-25T09:34:35.496Z,30.82
2019-03-25T09:37:26.259Z,31.35
2019-03-25T09:40:02.880Z,29.63
2019-03-25T09:42:51.853Z,28.77
2019-03-25T09:45:35.164Z,29.98
2019-03-25T09:48:24.794Z,29.55
2019-03-25T09:51:00.717Z,27.85
2019-03-25T09:53:50.580Z,28.80
2019-03-25T09:56:27.151Z,29.77
2019-03-25T09:59:16.774Z,30.27
2019-03-25T10:02:02.344Z,30.52
2019-03-25T10:04:51.308Z,29.65
2019-03-25T10:07:34.832Z,30.48
2019-03-25T10:10:17.946Z,28.65
2019-03-25T10:13:08.173Z,29.52
2019-03-25T10:15:46.280Z,29.75
2019-03-25T10:18:34.897Z,27.73
2019-03-25T10:21:17.590Z,28.85
2019-03-25T10:24:00.637Z,29.55
2019-03-25T10:26:43.703Z,30.77
2019-03-25T10:29:26.993Z,29.57
2019-03-25T10:32:09.053Z,29.63
2019-03-25T10:34:59.543Z,31.05
2019-03-25T10:37:41.649Z,28.32
2019-03-25T10:40:25.007Z,28.73
2019-03-25T10:43:08.049Z,29.05
2019-03-25T10:45:50.597Z,28.70
2019-03-25T10:48:33.957Z,29.42
2019-03-25T10:51:23.835Z,28.25
2019-03-25T10:54:00.367Z,29.98
2019-03-25T10:56:49.701Z,29.30
2019-03-25T10:59:32.725Z,30.25
2019-03-25T11:02:23.120Z,28.23
2019-03-25T11:05:05.548Z,28.60
2019-03-25T11:07:47.959Z,29.35
2019-03-25T11:10:30.172Z,29.32
2019-03-25T11:13:12.963Z,28.85
2019-03-25T11:15:55.958Z,28.60
2019-03-25T11:18:39.205Z,28.85
2019-03-25T11:21:22.210Z,29.23
2019-03-25T11:24:05.532Z,27.82
2019-03-25T11:26:47.711Z,26.85
2019-03-25T11:29:36.638Z,28.32
2019-03-25T11:32:13.173Z,28.90
2019-03-25T11:35:02.366Z,29.57
2019-03-25T11:37:46.215Z,28.85
2019-03-25T11:40:35.875Z,29.48
2019-03-25T11:43:12.062Z,28.77
2019-03-25T11:46:02.197Z,27.98
2019-03-25T11:48:38.430Z,27.87
2019-03-25T11:51:27.762Z,27.00
2019-03-25T11:54:11.363Z,28.65
2019-03-25T11:56:53.688Z,28.60
2019-03-25T11:59:36.016Z,28.32
2019-03-25T12:02:18.896Z,26.73
2019-03-25T12:05:01.923Z,27.77
2019-03-25T12:07:44.268Z,28.02
2019-03-25T12:10:27.030Z,28.52
2019-03-25T12:13:10.061Z,28.70
2019-03-25T12:15:52.370Z,23.73
2019-03-25T12:18:41.523Z,23.38
2019-03-25T12:21:18.066Z,23.07
2019-03-25T12:24:08.047Z,23.85
2019-03-25T12:26:44.298Z,22.65
2019-03-25T12:29:33.447Z,20.82
2019-03-25T12:32:15.746Z,16.93
2019-03-25T12:34:57.347Z,16.02
2019-03-25T12:37:39.847Z,16.12
2019-03-25T12:40:29.303Z,14.55
2019-03-25T12:43:05.411Z,15.28
2019-03-25T12:45:55.446Z,12.75
2019-03-25T12:48:38.369Z,12.88
2019-03-25T12:51:21.117Z,12.47
2019-03-25T12:54:03.282Z,11.75
2019-03-25T12:56:53.328Z,11.60
2019-03-25T12:59:41.188Z,11.60
2019-03-25T13:02:35.583Z,10.28
2019-03-25T13:05:25.409Z,10.50
2019-03-25T13:08:09.090Z,10.20
2019-03-25T13:10:52.319Z,9.93
2019-03-25T13:13:35.727Z,8.53
2019-03-25T13:16:17.750Z,9.73
2019-03-25T13:19:00.330Z,8.88
2019-03-25T13:21:42.861Z,9.43
2019-03-25T13:24:35.532Z,9.45
2019-03-25T13:27:17.730Z,9.68
2019-03-25T13:30:07.781Z,9.88
2019-03-25T13:32:44.275Z,9.65
2019-03-25T13:35:32.887Z,10.80
2019-03-25T13:38:10.140Z,9.98
2019-03-25T13:40:58.594Z,9.50
2019-03-25T13:43:35.149Z,9.20
2019-03-25T13:46:23.914Z,8.93
2019-03-25T13:48:59.746Z,9.60
2019-03-25T13:51:48.623Z,11.75
2019-03-25T13:54:31.520Z,11.65
2019-03-25T13:57:20.400Z,11.22
2019-03-25T14:00:03.181Z,12.33
2019-03-25T14:02:47.369Z,12.90
2019-03-25T14:05:23.426Z,9.93
2019-03-25T14:08:12.839Z,12.15
2019-03-25T14:10:49.213Z,12.40
2019-03-25T14:13:48.700Z,12.53
2019-03-25T14:16:23.409Z,13.03
2019-03-25T14:19:13.199Z,12.05
2019-03-25T14:21:55.979Z,12.35
2019-03-25T14:24:39.288Z,13.35
2019-03-25T14:27:22.360Z,11.93
2019-03-25T14:30:14.830Z,13.90
2019-03-25T14:33:09.590Z,12.37
2019-03-25T14:35:59.163Z,14.45
2019-03-25T14:38:49.630Z,13.78
2019-03-25T14:41:32.913Z,13.62
2019-03-25T14:44:22.432Z,13.78
2019-03-25T14:47:05.891Z,14.73
2019-03-25T14:49:47.914Z,14.28
2019-03-25T14:52:30.038Z,14.47
2019-03-25T14:55:13.058Z,13.98
2019-03-25T14:57:55.597Z,14.33
2019-03-25T15:00:38.144Z,14.35
2019-03-25T15:03:20.410Z,14.13
2019-03-25T15:06:02.796Z,13.93
2019-03-25T15:08:52.152Z,14.47
2019-03-25T15:11:35.241Z,14.35
2019-03-25T15:14:33.331Z,14.10
2019-03-25T15:17:21.350Z,14.45
2019-03-25T15:22:45.486Z,13.93
2019-03-25T15:25:22.314Z,14.65
2019-03-25T15:28:11.134Z,13.70
2019-03-25T15:33:35.901Z,14.73
2019-03-25T15:36:19.122Z,14.45
2019-03-25T15:39:09.301Z,14.47
2019-03-25T15:41:47.274Z,14.25
2019-03-25T15:44:37.560Z,15.13
2019-03-25T15:47:14.316Z,15.32
2019-03-25T15:50:02.465Z,14.93
2019-03-25T15:52:38.122Z,14.45
2019-03-25T15:55:27.333Z,14.83
2019-03-25T15:58:04.950Z,16.30
2019-03-25T16:00:53.995Z,15.30
2019-03-25T16:03:29.697Z,14.90
2019-03-25T16:06:22.234Z,14.45
2019-03-25T16:08:58.446Z,14.28
2019-03-25T16:11:48.375Z,15.10
2019-03-25T16:14:31.511Z,15.23
2019-03-25T16:17:14.802Z,14.90
2019-03-25T16:20:03.461Z,15.48
2019-03-25T16:22:39.709Z,14.93
2019-03-25T16:25:30.231Z,15.00
2019-03-25T16:28:08.135Z,15.95
2019-03-25T16:30:59.055Z,15.05
2019-03-25T16:33:41.957Z,15.45
2019-03-25T16:36:32.784Z,16.05
2019-03-25T16:39:08.897Z,15.85
2019-03-25T16:41:58.245Z,16.73
2019-03-25T16:44:34.407Z,15.20
2019-03-25T16:47:24.195Z,16.27
2019-03-25T16:50:00.600Z,16.67
2019-03-25T16:52:50.430Z,16.85
2019-03-25T16:55:26.825Z,16.67
2019-03-25T16:58:16.482Z,16.62
2019-03-25T17:01:09.299Z,16.07
2019-03-25T17:03:57.785Z,16.45
2019-03-25T17:06:46.827Z,16.42
2019-03-25T17:09:29.431Z,17.10
2019-03-25T17:12:19.087Z,17.07
2019-03-25T17:15:01.766Z,16.37
2019-03-25T17:17:56.973Z,16.45
2019-03-25T17:20:53.263Z,16.65
2019-03-25T17:23:42.855Z,16.85
2019-03-25T17:26:19.035Z,16.27
2019-03-25T17:29:08.274Z,16.87
2019-03-25T17:31:59.141Z,16.70
2019-03-25T17:34:54.391Z,17.07
2019-03-25T17:37:50.343Z,17.70
2019-03-25T17:40:32.671Z,16.55
2019-03-25T17:43:22.337Z,15.93
2019-03-25T17:46:01.941Z,16.15
2019-03-25T17:48:52.016Z,15.60
2019-03-25T17:51:28.543Z,16.95
2019-03-25T17:54:21.420Z,17.15
2019-03-25T17:57:17.859Z,17.48
2019-03-25T18:00:17.061Z,16.52
2019-03-25T18:03:15.204Z,16.85
2019-03-25T18:06:10.664Z,16.87
2019-03-25T18:09:06.564Z,18.10
2019-03-25T18:11:55.623Z,18.15
2019-03-25T18:14:39.361Z,18.75
2019-03-25T18:17:29.089Z,17.98
2019-03-25T18:20:18.724Z,17.35
2019-03-25T18:23:04.865Z,20.40
2019-03-25T18:25:47.231Z,16.77
2019-03-25T18:28:38.183Z,17.37
2019-03-25T18:31:28.308Z,16.62
2019-03-25T18:34:11.153Z,15.60
2019-03-25T18:36:54.457Z,15.72
2019-03-25T18:39:38.039Z,14.05
2019-03-25T18:42:21.591Z,14.45
2019-03-25T18:45:05.058Z,13.45
2019-03-25T18:47:47.823Z,12.43
2019-03-25T18:50:30.391Z,11.38
2019-03-25T18:53:20.782Z,10.25
2019-03-25T18:56:17.013Z,9.53
2019-03-25T18:59:06.790Z,8.98
2019-03-25T19:01:54.730Z,10.75
2019-03-25T19:04:49.202Z,8.63
2019-03-25T19:07:45.138Z,17.17
2019-03-25T19:10:35.815Z,7.95
2019-03-25T19:13:19.424Z,5.65
2019-03-25T19:16:09.224Z,2.85
2019-03-25T19:18:45.481Z,2.05
2019-03-25T19:21:34.527Z,1.65
2019-03-25T19:24:17.812Z,2.20
2019-03-25T19:27:06.806Z,1.57
2019-03-25T19:29:43.344Z,1.65
2019-03-25T19:32:31.978Z,2.42
2019-03-25T19:35:07.769Z,6.05
2019-03-25T19:37:56.857Z,1.65
2019-03-25T19:40:33.530Z,1.35
2019-03-25T19:43:23.526Z,1.70
2019-03-25T19:46:00.066Z,1.50
2019-03-25T19:48:49.949Z,1.75
2019-03-25T19:51:26.142Z,1.10
2019-03-25T19:54:15.776Z,1.60
2019-03-25T19:56:58.426Z,1.35
2019-03-25T19:59:54.547Z,1.30
2019-03-25T20:02:49.811Z,1.25
2019-03-25T20:05:44.738Z,1.52
2019-03-25T20:08:41.462Z,1.50
2019-03-25T20:11:38.212Z,1.25
2019-03-25T20:14:21.009Z,1.42
2019-03-25T20:17:11.454Z,1.40
2019-03-25T20:19:47.946Z,1.40
2019-03-25T20:22:37.680Z,1.37
2019-03-25T20:25:19.506Z,1.32
2019-03-25T20:28:01.747Z,1.80
2019-03-25T20:30:44.759Z,1.50
2019-03-25T20:33:40.998Z,1.32
2019-03-25T20:36:37.092Z,1.60
2019-03-25T20:39:33.893Z,1.47
2019-03-25T20:42:29.190Z,1.17
2019-03-25T20:45:24.740Z,1.52
2019-03-25T20:48:15.618Z,1.30
2019-03-25T20:50:52.203Z,1.55
2019-03-25T20:53:41.638Z,1.62
2019-03-25T20:56:24.120Z,1.42
2019-03-25T20:59:14.738Z,1.52
2019-03-25T21:01:51.259Z,1.52
2019-03-25T21:04:40.551Z,1.20
2019-03-25T21:07:24.117Z,1.20
2019-03-25T21:10:19.720Z,1.15
2019-03-25T21:13:16.117Z,0.90
2019-03-25T21:16:11.790Z,1.02
2019-03-25T21:19:08.044Z,0.93
2019-03-25T21:22:03.281Z,1.12
2019-03-25T21:24:59.035Z,1.17
2019-03-25T21:27:55.430Z,1.20
2019-03-25T21:30:51.740Z,0.80
2019-03-25T21:33:47.447Z,0.78
2019-03-25T21:36:43.546Z,1.17
2019-03-25T21:39:39.795Z,0.88
2019-03-25T21:42:35.889Z,2.55
2019-03-25T21:45:31.970Z,0.80
2019-03-25T21:48:27.319Z,0.90
2019-03-25T21:51:22.458Z,1.25
2019-03-25T21:54:10.876Z,1.20
2019-03-25T21:56:54.459Z,1.82
2019-03-25T21:59:50.506Z,3.10
2019-03-25T22:02:46.729Z,1.37
2019-03-25T22:05:35.924Z,1.45
2019-03-25T22:08:12.165Z,1.70
2019-03-25T22:11:01.148Z,1.82
2019-03-25T22:16:28.415Z,1.62
2019-03-25T22:19:04.657Z,1.55
2019-03-25T22:21:54.225Z,0.98
2019-03-25T22:24:36.639Z,0.98
2019-03-25T22:27:33.117Z,1.10
2019-03-25T22:30:25.609Z,2.92
2019-03-25T22:33:00.313Z,1.05
2019-03-25T22:35:49.968Z,1.22
2019-03-25T22:38:43.676Z,1.37
2019-03-25T22:41:20.534Z,1.50
2019-03-25T22:44:09.226Z,1.32
2019-03-25T22:46:45.835Z,1.37
2019-03-25T22:49:34.958Z,1.00
2019-03-25T22:52:11.333Z,1.57
2019-03-25T22:55:00.556Z,1.20
2019-03-25T22:57:38.330Z,1.15
2019-03-25T23:00:29.242Z,1.17
2019-03-25T23:03:06.251Z,1.00
2019-03-25T23:05:55.898Z,1.40
2019-03-25T23:08:44.798Z,1.47
2019-03-25T23:11:33.458Z,1.75
2019-03-25T23:14:16.634Z,1.65
2019-03-25T23:17:11.968Z,1.55
2019-03-25T23:20:00.204Z,1.65
2019-03-25T23:22:43.485Z,1.30
2019-03-25T23:25:32.330Z,1.37
2019-03-25T23:28:16.115Z,1.40
2019-03-25T23:30:58.334Z,1.30
2019-03-25T23:33:52.099Z,1.00
2019-03-25T23:36:25.175Z,1.10
2019-03-25T23:39:14.831Z,1.15
2019-03-25T23:41:51.001Z,1.35
2019-03-25T23:44:40.753Z,1.90
2019-03-25T23:47:16.653Z,1.90
2019-03-25T23:50:05.362Z,1.62
2019-03-25T23:52:48.706Z,1.20
2019-03-25T23:55:31.476Z,1.52
2019-03-25T23:58:14.016Z,1.30
